Pagina principale
METAR-TAF:

METAR-TAF

Aeroporti :

Aeroporto di Rabat-Salé

Rabat, Marocco

latitudine: 34-03N, longitudine: 006-46W, altezza: 84 m

Osservazione

Il bollettino è stato emesso 29 minuti fa, alle 12:30 UTC
Vento 7 kt da nord/nord-ovest, variando fra ovest e nord
Temperature 25°C
Umidità 57%
Pressione 1018 hPa
Visibilità: 8000 m
Poco nuvoloso ad un'altezza di 2000 ft

METAR: GMME 151230Z 33007KT 280V010 8000 FEW020 25/16 Q1018 NOSIG

Ora: 13:59 (12:59 UTC)

Previsione

Il bollettino è stato emesso 1 ora e 59 minuti fa, alle 11:00 UTC
Previsione valida dal 15 alle 12 UTC al 16 alle 18 UTC
Vento 10 kt da nord-ovest
Visibilità: 6000 m
Nubi sparse ad un'altezza di 1500 ft

TAF: GMME 151100Z 1512/1618 32010KT 6000 SCT015

Osservazioni e previsioni meteorologiche di più di 4000 aeroporti (messaggi METAR e TAF).

Le stazioni disponibili sono rappresentate dai dischi gialli e rossi sulla carta.

Puntare il mouse per vedere il nome della stazione.

Clicca sopra per visualizzare le osservazioni e previsioni meteorologiche.

Per cambiare la mappa : fare clic sui pulsanti verdi con una croce nera per ingrandire, il pulsante verde con un trattino per diminuire, o sulla freccia verde per le mappe adiacenti.


METAR-TAF: